Time;durP1;ratioP1;P1;durP2;ratioP2;P2;SDS_P1;SDS_P2;PMS_P1;PMS_P2;Temp;Humidity;BMP_temperature;BMP_pressure;BME280_temperature;BME280_humidity;BME280_pressure;Samples;Min_cycle;Max_cycle;Signal;HPM_P1;HPM_P2
2022/03/27 00:01:32;;;;;;;6.77;6.07;;;9.40;52.90;;;;;;935945;150;27386;-78
2022/03/27 00:03:58;;;;;;;5.90;5.40;;;9.30;52.90;;;;;;936588;150;27463;-78
2022/03/27 00:06:25;;;;;;;7.17;5.67;;;9.30;52.80;;;;;;937418;151;28860;-78
2022/03/27 00:08:52;;;;;;;7.67;6.40;;;9.20;53.10;;;;;;935842;152;27374;-79
2022/03/27 00:11:24;;;;;;;8.13;5.50;;;9.10;53.20;;;;;;934976;151;27356;-78
2022/03/27 00:13:51;;;;;;;8.47;5.73;;;9.10;53.40;;;;;;935086;151;27322;-78
2022/03/27 00:16:17;;;;;;;6.73;6.00;;;9.10;53.40;;;;;;935829;152;27348;-78
2022/03/27 00:18:44;;;;;;;5.97;5.43;;;9.00;53.40;;;;;;935937;151;28573;-78
2022/03/27 00:21:10;;;;;;;5.50;4.53;;;9.00;53.60;;;;;;936046;150;27292;-78
2022/03/27 00:23:37;;;;;;;5.33;4.83;;;8.90;53.60;;;;;;936632;151;27270;-78
2022/03/27 00:26:04;;;;;;;6.93;5.73;;;8.90;53.60;;;;;;937564;150;27454;-78
2022/03/27 00:28:33;;;;;;;6.47;5.73;;;8.80;53.70;;;;;;936514;152;27845;-78
2022/03/27 00:31:00;;;;;;;7.07;5.37;;;8.80;53.90;;;;;;936695;151;27297;-78
2022/03/27 00:33:26;;;;;;;6.10;4.60;;;8.70;54.10;;;;;;936081;152;27353;-78
2022/03/27 00:35:53;;;;;;;7.13;5.47;;;8.60;54.20;;;;;;936586;152;27325;-79
2022/03/27 00:38:19;;;;;;;6.47;4.90;;;8.60;54.20;;;;;;936539;151;27478;-78
2022/03/27 00:40:46;;;;;;;6.07;5.47;;;8.50;54.40;;;;;;936102;151;27363;-78
2022/03/27 00:43:12;;;;;;;6.43;5.33;;;8.50;54.40;;;;;;936298;152;27442;-78
2022/03/27 00:45:39;;;;;;;5.27;4.80;;;8.40;54.60;;;;;;935351;151;27294;-78
2022/03/27 00:48:06;;;;;;;6.03;5.43;;;8.40;54.80;;;;;;936532;152;27302;-78
2022/03/27 00:50:32;;;;;;;5.70;4.93;;;8.40;55.00;;;;;;935770;150;27316;-79
2022/03/27 00:52:59;;;;;;;5.90;5.33;;;8.30;55.00;;;;;;936534;152;27361;-79
2022/03/27 00:55:25;;;;;;;6.07;5.47;;;8.30;55.10;;;;;;935913;152;27592;-78
2022/03/27 00:57:52;;;;;;;7.37;5.43;;;8.30;55.10;;;;;;935373;152;27311;-78
2022/03/27 01:00:18;;;;;;;6.40;5.63;;;8.20;55.20;;;;;;935386;150;27763;-78
2022/03/27 01:02:45;;;;;;;5.97;5.37;;;8.20;55.40;;;;;;935542;151;27365;-78
2022/03/27 01:05:13;;;;;;;7.03;5.10;;;8.20;55.50;;;;;;935909;150;27347;-78
2022/03/27 01:07:38;;;;;;;5.90;5.30;;;8.10;55.50;;;;;;935526;152;27766;-78
2022/03/27 01:10:05;;;;;;;6.33;5.70;;;8.10;55.50;;;;;;936210;150;27341;-78
2022/03/27 01:12:38;;;;;;;6.10;5.00;;;8.00;55.60;;;;;;935163;152;27357;-78
2022/03/27 01:15:04;;;;;;;8.20;5.33;;;8.00;55.60;;;;;;935879;152;27365;-78
2022/03/27 01:17:30;;;;;;;7.57;5.50;;;8.00;55.80;;;;;;935458;152;27344;-78
2022/03/27 01:19:57;;;;;;;6.93;5.67;;;7.90;55.80;;;;;;936365;150;27350;-78
2022/03/27 01:22:23;;;;;;;7.00;5.83;;;7.90;55.90;;;;;;936751;152;27328;-79
2022/03/27 01:24:50;;;;;;;6.30;5.70;;;7.80;55.90;;;;;;937347;151;27465;-78
2022/03/27 01:27:16;;;;;;;6.07;5.30;;;7.80;56.10;;;;;;936364;150;27400;-78
2022/03/27 01:29:43;;;;;;;9.13;6.47;;;7.80;56.20;;;;;;935007;150;27268;-78
2022/03/27 01:32:14;;;;;;;6.13;5.43;;;7.70;56.30;;;;;;935778;152;27302;-78
2022/03/27 01:34:36;;;;;;;5.97;5.37;;;7.70;56.40;;;;;;935648;150;27338;-78
2022/03/27 01:37:09;;;;;;;8.63;5.73;;;7.60;56.40;;;;;;936637;151;27365;-78
2022/03/27 01:39:35;;;;;;;8.30;6.07;;;7.60;56.60;;;;;;936940;152;27443;-78
2022/03/27 01:42:03;;;;;;;6.60;6.00;;;7.50;56.60;;;;;;936630;152;27294;-78
2022/03/27 01:44:28;;;;;;;7.00;6.30;;;7.50;56.70;;;;;;934815;152;27336;-78
2022/03/27 01:46:57;;;;;;;6.03;5.00;;;7.50;56.80;;;;;;936665;152;27365;-78
2022/03/27 01:49:22;;;;;;;6.20;5.60;;;7.40;57.10;;;;;;935611;150;27362;-77
2022/03/27 01:51:48;;;;;;;6.37;5.47;;;7.40;57.10;;;;;;936653;152;27383;-78
2022/03/27 01:54:15;;;;;;;7.43;5.87;;;7.40;57.10;;;;;;936540;150;27465;-78
2022/03/27 01:56:41;;;;;;;6.73;5.90;;;7.40;57.30;;;;;;944024;151;27313;-78
2022/03/27 01:59:08;;;;;;;6.37;5.77;;;7.40;57.50;;;;;;944359;149;27766;-78
2022/03/27 02:01:34;;;;;;;8.33;6.03;;;7.30;57.50;;;;;;943906;151;27987;-78
2022/03/27 02:04:01;;;;;;;7.47;6.17;;;7.30;57.70;;;;;;943830;151;27448;-78
2022/03/27 02:06:28;;;;;;;6.23;5.63;;;7.30;57.80;;;;;;943795;151;27318;-78
2022/03/27 02:08:54;;;;;;;8.13;5.20;;;7.30;57.80;;;;;;943458;151;27277;-78
2022/03/27 02:11:21;;;;;;;6.67;5.60;;;7.30;57.90;;;;;;943341;150;27930;-77
2022/03/27 02:13:47;;;;;;;8.13;6.20;;;7.30;57.80;;;;;;943924;151;27405;-78
2022/03/27 02:16:14;;;;;;;6.97;6.10;;;7.30;57.30;;;;;;942431;151;27313;-78
2022/03/27 02:18:42;;;;;;;6.73;6.00;;;7.30;58.00;;;;;;943423;149;27393;-78
2022/03/27 02:21:07;;;;;;;6.03;5.43;;;7.30;58.10;;;;;;943284;149;27666;-78
2022/03/27 02:23:34;;;;;;;7.50;6.13;;;7.20;58.10;;;;;;943865;149;27333;-78
2022/03/27 02:26:00;;;;;;;7.57;5.47;;;7.20;58.00;;;;;;944226;149;27858;-78
2022/03/27 02:28:27;;;;;;;7.57;5.97;;;7.20;58.10;;;;;;943866;151;27397;-78
2022/03/27 02:30:53;;;;;;;7.13;5.50;;;7.20;58.00;;;;;;944073;149;27320;-78
2022/03/27 02:33:20;;;;;;;6.60;5.53;;;7.20;58.10;;;;;;943607;150;27406;-78
2022/03/27 02:35:47;;;;;;;6.60;6.00;;;7.10;58.10;;;;;;944063;151;27345;-78
2022/03/27 02:38:13;;;;;;;5.93;5.10;;;7.10;58.20;;;;;;943678;151;27941;-78
2022/03/27 02:40:40;;;;;;;6.37;5.53;;;7.00;58.20;;;;;;943023;151;27390;-78
2022/03/27 02:43:06;;;;;;;6.93;5.70;;;7.00;58.30;;;;;;943813;151;27430;-74
2022/03/27 02:45:33;;;;;;;6.93;5.73;;;7.00;58.40;;;;;;943349;151;27308;-75
2022/03/27 02:47:59;;;;;;;5.80;5.27;;;6.90;58.40;;;;;;944224;151;27289;-77
2022/03/27 02:50:26;;;;;;;6.17;5.53;;;6.90;58.20;;;;;;943608;151;27907;-74
2022/03/27 02:52:53;;;;;;;7.80;6.20;;;6.80;58.60;;;;;;943916;151;27301;-75
2022/03/27 02:55:19;;;;;;;6.53;5.73;;;6.80;58.70;;;;;;941184;151;27314;-75
2022/03/27 02:57:46;;;;;;;5.60;4.97;;;6.80;58.80;;;;;;937991;151;27285;-75
2022/03/27 03:00:12;;;;;;;6.23;5.50;;;6.70;59.00;;;;;;936389;150;27364;-77
2022/03/27 03:02:39;;;;;;;8.33;5.57;;;6.70;59.10;;;;;;936257;152;27354;-74
2022/03/27 03:05:06;;;;;;;6.50;5.90;;;6.70;59.20;;;;;;937009;151;27242;-74
2022/03/27 03:07:33;;;;;;;6.20;5.57;;;6.60;59.30;;;;;;936354;152;27286;-75
2022/03/27 03:09:59;;;;;;;6.80;6.00;;;6.60;59.50;;;;;;936976;151;27374;-75
2022/03/27 03:12:26;;;;;;;7.43;5.80;;;6.60;59.60;;;;;;936071;151;27357;-76
2022/03/27 03:14:55;;;;;;;5.97;5.33;;;6.60;59.70;;;;;;936700;152;27749;-75
2022/03/27 03:17:20;;;;;;;6.90;5.67;;;6.60;59.70;;;;;;935702;149;27761;-75
2022/03/27 03:19:45;;;;;;;6.93;6.17;;;6.50;59.70;;;;;;935340;152;27469;-74
2022/03/27 03:22:12;;;;;;;7.60;5.70;;;6.50;59.80;;;;;;936100;151;27297;-75
2022/03/27 03:24:38;;;;;;;7.80;6.23;;;6.50;60.00;;;;;;936563;152;27471;-77
2022/03/27 03:27:05;;;;;;;8.13;6.10;;;6.50;60.00;;;;;;937436;151;27507;-75
2022/03/27 03:29:31;;;;;;;6.47;5.63;;;6.50;60.00;;;;;;934679;152;27490;-75
2022/03/27 03:31:58;;;;;;;6.50;5.57;;;6.50;60.10;;;;;;935853;151;27374;-75
2022/03/27 03:34:25;;;;;;;6.20;5.60;;;6.50;60.00;;;;;;937423;151;27258;-75
2022/03/27 03:36:51;;;;;;;6.93;5.77;;;6.50;60.00;;;;;;936638;151;27441;-77
2022/03/27 03:39:18;;;;;;;5.97;5.37;;;6.50;60.20;;;;;;937236;151;27381;-75
2022/03/27 03:41:44;;;;;;;5.47;4.87;;;6.40;60.30;;;;;;936558;152;27321;-74
2022/03/27 03:44:11;;;;;;;6.43;5.67;;;6.40;60.30;;;;;;937142;152;27392;-74
2022/03/27 03:46:37;;;;;;;8.27;6.20;;;6.40;60.30;;;;;;936537;151;27887;-75
2022/03/27 03:49:07;;;;;;;7.83;6.07;;;6.40;60.40;;;;;;936753;151;27312;-77
2022/03/27 03:51:31;;;;;;;7.43;5.97;;;6.40;60.60;;;;;;934528;152;27473;-74
2022/03/27 03:53:57;;;;;;;6.03;5.43;;;6.40;60.30;;;;;;935258;150;27298;-74
2022/03/27 03:56:24;;;;;;;6.37;5.80;;;6.30;60.50;;;;;;941065;150;27440;-75
2022/03/27 03:58:50;;;;;;;8.50;5.93;;;6.30;60.50;;;;;;943616;151;27810;-75
2022/03/27 04:01:17;;;;;;;6.17;5.57;;;6.30;60.40;;;;;;943709;151;27355;-77
2022/03/27 04:03:44;;;;;;;6.37;5.77;;;6.30;60.50;;;;;;943835;151;27319;-75
2022/03/27 04:06:10;;;;;;;7.30;5.63;;;6.30;60.70;;;;;;943809;150;27339;-75
2022/03/27 04:08:37;;;;;;;6.90;6.20;;;6.30;60.90;;;;;;943853;151;27410;-75
2022/03/27 04:11:04;;;;;;;8.57;6.40;;;6.30;60.70;;;;;;942774;151;27847;-75
2022/03/27 04:13:30;;;;;;;6.23;5.63;;;6.20;61.00;;;;;;943492;151;27257;-77
2022/03/27 04:15:56;;;;;;;8.87;6.47;;;6.20;61.10;;;;;;943353;150;27971;-75
2022/03/27 04:18:24;;;;;;;6.33;5.37;;;6.20;61.00;;;;;;943551;151;27370;-74
2022/03/27 04:20:50;;;;;;;7.47;5.97;;;6.20;61.10;;;;;;943405;151;27267;-75
2022/03/27 04:23:16;;;;;;;9.40;6.27;;;6.20;61.20;;;;;;943229;151;27301;-76
2022/03/27 04:25:43;;;;;;;10.10;5.90;;;6.20;61.30;;;;;;943441;150;27490;-77
2022/03/27 04:28:10;;;;;;;6.50;5.90;;;6.20;61.30;;;;;;942738;151;27432;-76
2022/03/27 04:30:37;;;;;;;11.00;6.00;;;6.10;62.10;;;;;;944057;149;27310;-75
2022/03/27 04:33:03;;;;;;;7.40;6.27;;;6.10;61.40;;;;;;943573;149;27352;-75
2022/03/27 04:35:29;;;;;;;11.70;6.10;;;6.10;61.40;;;;;;944105;151;27445;-75
2022/03/27 04:37:56;;;;;;;7.03;5.90;;;6.10;61.60;;;;;;944068;151;27455;-78
2022/03/27 04:40:22;;;;;;;5.83;5.23;;;6.00;61.50;;;;;;943864;151;27336;-74
2022/03/27 04:42:49;;;;;;;6.37;5.70;;;6.00;61.50;;;;;;943942;151;27417;-74
2022/03/27 04:45:16;;;;;;;6.50;5.90;;;6.00;61.60;;;;;;943546;149;27792;-74
2022/03/27 04:47:42;;;;;;;7.47;6.03;;;6.00;61.60;;;;;;943940;151;27394;-74
2022/03/27 04:50:09;;;;;;;6.80;6.07;;;6.00;61.80;;;;;;943805;150;27273;-77
2022/03/27 04:52:35;;;;;;;6.50;5.57;;;5.90;61.90;;;;;;943089;151;27444;-75
2022/03/27 04:55:02;;;;;;;10.83;6.60;;;5.90;61.90;;;;;;943844;151;27343;-77
2022/03/27 04:57:38;;;;;;;7.70;5.80;;;5.90;62.00;;;;;;936878;151;27903;-74
2022/03/27 05:00:10;;;;;;;6.97;5.33;;;5.90;62.30;;;;;;936394;151;27350;-75
2022/03/27 05:02:34;;;;;;;7.40;5.93;;;5.80;62.20;;;;;;935970;152;27684;-78
2022/03/27 05:05:00;;;;;;;8.43;6.53;;;5.80;62.20;;;;;;934867;152;27975;-74
2022/03/27 05:07:27;;;;;;;7.90;6.10;;;5.80;62.50;;;;;;936586;152;27260;-75
2022/03/27 05:09:53;;;;;;;8.10;6.13;;;5.80;62.60;;;;;;936387;150;27311;-74
2022/03/27 05:12:20;;;;;;;6.90;6.03;;;5.80;62.70;;;;;;936486;151;27379;-75
2022/03/27 05:14:47;;;;;;;8.27;6.67;;;5.80;62.70;;;;;;936018;151;27364;-77
2022/03/27 05:17:13;;;;;;;7.23;6.37;;;5.80;62.90;;;;;;935747;152;27368;-74
2022/03/27 05:19:41;;;;;;;7.30;6.53;;;5.80;62.90;;;;;;935646;150;27876;-74
2022/03/27 05:22:07;;;;;;;7.30;6.60;;;5.80;63.00;;;;;;936782;150;27302;-75
2022/03/27 05:24:33;;;;;;;7.23;6.10;;;5.80;63.10;;;;;;935018;151;27329;-75
2022/03/27 05:27:00;;;;;;;6.77;6.07;;;5.90;63.30;;;;;;935319;150;27450;-77
2022/03/27 05:29:26;;;;;;;6.73;6.13;;;5.90;63.20;;;;;;935476;152;27469;-75
2022/03/27 05:31:53;;;;;;;7.27;6.10;;;5.90;63.20;;;;;;935645;151;27317;-75
2022/03/27 05:34:19;;;;;;;7.13;6.03;;;6.00;63.50;;;;;;936824;152;27399;-75
2022/03/27 05:36:46;;;;;;;7.33;6.63;;;6.10;63.70;;;;;;935946;150;27240;-74
2022/03/27 05:39:12;;;;;;;9.10;6.63;;;6.20;64.00;;;;;;937338;152;27329;-78
2022/03/27 05:41:39;;;;;;;7.90;6.17;;;6.40;64.20;;;;;;937165;149;27370;-75
2022/03/27 05:44:06;;;;;;;8.13;7.07;;;6.50;64.30;;;;;;936057;152;27304;-75
2022/03/27 05:46:32;;;;;;;8.00;6.77;;;6.70;64.40;;;;;;936375;151;27350;-74
2022/03/27 05:48:59;;;;;;;9.80;6.83;;;7.00;63.60;;;;;;936345;151;27320;-76
2022/03/27 05:51:25;;;;;;;7.50;6.30;;;7.30;64.40;;;;;;936982;152;27992;-77
2022/03/27 05:53:52;;;;;;;8.83;7.43;;;7.60;64.40;;;;;;935715;151;27365;-75
2022/03/27 05:56:19;;;;;;;8.77;7.87;;;8.00;64.40;;;;;;936564;151;27313;-74
2022/03/27 05:58:45;;;;;;;8.03;7.20;;;8.30;64.20;;;;;;935883;152;27350;-75
2022/03/27 06:01:12;;;;;;;7.93;7.13;;;8.80;64.20;;;;;;934789;152;27392;-74
2022/03/27 06:03:38;;;;;;;9.77;7.77;;;9.20;64.00;;;;;;935840;151;27967;-76
2022/03/27 06:06:05;;;;;;;7.47;6.77;;;9.70;64.60;;;;;;935895;150;27322;-74
2022/03/27 06:08:31;;;;;;;8.73;7.67;;;10.10;63.30;;;;;;935366;152;27938;-74
2022/03/27 06:10:58;;;;;;;8.73;7.57;;;10.60;63.00;;;;;;935956;150;27338;-75
2022/03/27 06:13:25;;;;;;;8.20;7.43;;;11.10;62.50;;;;;;935179;150;27679;-75
2022/03/27 06:15:51;;;;;;;9.90;8.20;;;11.60;61.90;;;;;;936079;151;27274;-74
2022/03/27 06:18:18;;;;;;;8.70;7.80;;;12.10;61.70;;;;;;935712;152;27357;-75
2022/03/27 06:20:44;;;;;;;9.07;8.17;;;12.70;61.20;;;;;;936320;150;27316;-75
2022/03/27 06:23:12;;;;;;;9.63;8.30;;;13.20;60.60;;;;;;936023;151;27371;-75
2022/03/27 06:25:40;;;;;;;12.07;8.37;;;13.70;59.90;;;;;;936404;150;27435;-75
2022/03/27 06:28:04;;;;;;;9.03;8.07;;;14.30;59.20;;;;;;936896;152;27371;-78
2022/03/27 06:30:31;;;;;;;9.13;8.20;;;14.80;58.50;;;;;;935536;151;27317;-75
2022/03/27 06:32:57;;;;;;;12.27;8.03;;;15.40;57.90;;;;;;935456;152;27289;-75
2022/03/27 06:35:24;;;;;;;7.75;6.87;;;15.90;57.20;;;;;;936516;151;27245;-75
2022/03/27 06:37:51;;;;;;;7.95;7.15;;;16.40;56.60;;;;;;936186;152;27363;-75
2022/03/27 06:40:17;;;;;;;7.42;6.47;;;16.80;55.90;;;;;;935628;152;27326;-78
2022/03/27 06:42:44;;;;;;;7.80;7.03;;;17.40;55.40;;;;;;936462;151;27434;-75
2022/03/27 06:45:10;;;;;;;8.13;7.33;;;17.80;54.70;;;;;;936886;151;27353;-75
2022/03/27 06:47:37;;;;;;;7.53;6.17;;;18.30;54.10;;;;;;935007;151;27266;-76
2022/03/27 06:50:04;;;;;;;6.72;6.12;;;18.80;53.60;;;;;;936527;152;27293;-75
2022/03/27 06:52:30;;;;;;;8.18;6.90;;;19.30;53.10;;;;;;936321;152;27411;-77
2022/03/27 06:54:57;;;;;;;7.58;6.85;;;19.80;52.70;;;;;;936241;151;27420;-75
2022/03/27 06:57:23;;;;;;;7.87;7.15;;;20.30;51.90;;;;;;937277;150;27414;-75
2022/03/27 07:05:22;;;;;;;8.00;6.85;;;21.80;50.10;;;;;;941249;150;27394;-75
2022/03/27 07:07:47;;;;;;;7.97;7.10;;;22.30;49.60;;;;;;941239;150;27378;-79
2022/03/27 07:10:13;;;;;;;10.15;7.08;;;22.80;49.00;;;;;;941481;150;27343;-76
2022/03/27 07:12:39;;;;;;;7.72;6.95;;;23.40;48.40;;;;;;942933;150;27419;-76
2022/03/27 07:15:06;;;;;;;9.55;7.22;;;23.90;47.90;;;;;;941703;149;27512;-76
2022/03/27 07:17:33;;;;;;;8.70;7.00;;;24.40;47.10;;;;;;940171;150;27270;-76
2022/03/27 07:19:59;;;;;;;8.00;7.20;;;24.90;46.40;;;;;;941340;150;27426;-78
2022/03/27 07:22:26;;;;;;;7.95;7.12;;;25.30;45.80;;;;;;941331;150;27360;-76
2022/03/27 07:24:53;;;;;;;8.53;6.42;;;25.80;45.10;;;;;;940962;150;27252;-76
2022/03/27 07:27:20;;;;;;;8.65;6.75;;;26.20;45.20;;;;;;942296;149;27346;-76
2022/03/27 07:29:46;;;;;;;21.80;8.40;;;26.50;43.90;;;;;;942143;150;27395;-77
2022/03/27 07:32:12;;;;;;;7.55;6.85;;;26.90;43.30;;;;;;941471;150;27857;-77
2022/03/27 07:34:40;;;;;;;8.28;7.17;;;27.20;43.00;;;;;;940906;150;27454;-76
2022/03/27 07:37:05;;;;;;;7.55;6.67;;;27.50;42.50;;;;;;942092;150;27334;-76
2022/03/27 07:39:32;;;;;;;7.90;7.20;;;27.80;42.60;;;;;;939609;150;27351;-78
2022/03/27 07:41:59;;;;;;;7.12;6.50;;;28.10;41.80;;;;;;942061;150;27279;-76
2022/03/27 07:44:25;;;;;;;8.83;7.47;;;28.50;40.80;;;;;;940510;150;27256;-77
2022/03/27 07:46:56;;;;;;;8.00;7.30;;;28.80;41.00;;;;;;941110;150;27438;-77
2022/03/27 07:49:19;;;;;;;8.45;7.65;;;29.20;40.70;;;;;;940170;150;27362;-78
2022/03/27 07:51:45;;;;;;;7.55;6.87;;;29.60;40.40;;;;;;939674;150;27279;-77
2022/03/27 07:54:12;;;;;;;8.40;7.60;;;29.90;40.00;;;;;;941231;150;27282;-76
2022/03/27 07:56:38;;;;;;;7.40;6.75;;;30.30;39.60;;;;;;942211;149;27290;-78
2022/03/27 07:59:05;;;;;;;8.58;7.78;;;30.60;39.20;;;;;;938420;149;27367;-76
2022/03/27 08:01:31;;;;;;;8.70;7.90;;;31.00;38.80;;;;;;936179;152;27452;-76
2022/03/27 08:03:59;;;;;;;10.55;8.10;;;31.40;38.40;;;;;;935704;152;27670;-76
2022/03/27 08:06:25;;;;;;;9.00;8.08;;;31.70;38.20;;;;;;936658;152;27262;-77
2022/03/27 08:08:51;;;;;;;9.50;7.95;;;31.90;37.60;;;;;;936814;151;27450;-77
2022/03/27 08:11:18;;;;;;;8.73;7.92;;;32.30;37.40;;;;;;935836;150;27325;-79
2022/03/27 08:13:44;;;;;;;9.25;7.62;;;32.60;37.00;;;;;;934360;152;27450;-77
2022/03/27 08:16:11;;;;;;;7.90;7.25;;;32.90;36.70;;;;;;935507;151;27348;-77
2022/03/27 08:18:39;;;;;;;7.97;7.17;;;33.20;36.30;;;;;;934781;151;27277;-77
2022/03/27 08:21:04;;;;;;;9.00;6.80;;;33.40;35.90;;;;;;936000;152;27380;-77
2022/03/27 08:23:31;;;;;;;7.70;7.00;;;33.60;35.50;;;;;;936947;152;27569;-77
2022/03/27 08:28:42;;;;;;;7.53;6.78;;;34.10;35.00;;;;;;935476;151;27326;-77
2022/03/27 08:31:09;;;;;;;7.42;6.80;;;34.30;34.80;;;;;;934832;152;27333;-77
2022/03/27 08:33:35;;;;;;;7.00;6.42;;;34.40;34.40;;;;;;935797;150;27219;-77
2022/03/27 08:36:02;;;;;;;7.45;6.72;;;34.70;34.30;;;;;;934188;150;27449;-80
2022/03/27 08:38:28;;;;;;;6.97;6.35;;;34.90;34.00;;;;;;935195;151;27369;-78
2022/03/27 08:41:01;;;;;;;8.03;6.62;;;35.00;33.60;;;;;;935672;152;27319;-77
2022/03/27 08:43:21;;;;;;;7.15;6.53;;;35.30;33.50;;;;;;934182;151;27330;-79
2022/03/27 08:45:48;;;;;;;7.35;6.65;;;35.40;33.10;;;;;;935893;151;27264;-78
2022/03/27 08:48:15;;;;;;;7.55;6.62;;;35.60;32.90;;;;;;936266;150;27445;-78
2022/03/27 08:50:44;;;;;;;10.18;8.55;;;35.70;32.70;;;;;;935432;152;27327;-77
2022/03/27 08:53:13;;;;;;;7.50;6.80;;;35.80;32.40;;;;;;935283;151;26230;-78
2022/03/27 08:55:46;;;;;;;7.92;6.83;;;35.90;32.30;;;;;;937054;152;27302;-78
2022/03/27 08:58:12;;;;;;;7.15;6.05;;;36.10;32.20;;;;;;937333;151;27536;-77
2022/03/27 09:00:39;;;;;;;6.65;6.05;;;36.20;32.00;;;;;;943859;149;26312;-77
2022/03/27 09:03:05;;;;;;;7.78;7.05;;;36.30;31.80;;;;;;944313;149;26318;-78
2022/03/27 09:05:38;;;;;;;7.58;6.45;;;36.40;31.50;;;;;;943868;150;27231;-78
2022/03/27 09:08:04;;;;;;;7.15;6.53;;;36.60;31.30;;;;;;944069;150;26253;-79
2022/03/27 09:10:31;;;;;;;7.05;6.50;;;36.60;31.10;;;;;;942855;149;26253;-77
2022/03/27 09:12:58;;;;;;;7.22;6.55;;;36.70;31.00;;;;;;943457;151;26335;-77
2022/03/27 09:15:24;;;;;;;7.67;6.97;;;36.70;30.70;;;;;;944160;151;27348;-77
2022/03/27 09:18:07;;;;;;;7.05;6.37;;;36.80;30.00;;;;;;943363;151;27343;-78
2022/03/27 09:20:35;;;;;;;7.65;6.95;;;36.70;30.20;;;;;;943477;151;26229;-79
2022/03/27 09:23:21;;;;;;;6.80;6.15;;;36.60;30.30;;;;;;942883;151;27331;-78
2022/03/27 09:25:52;;;;;;;8.63;6.28;;;36.50;30.30;;;;;;943524;151;26260;-78
2022/03/27 09:28:22;;;;;;;7.60;6.90;;;36.50;30.40;;;;;;943604;151;26245;-78
2022/03/27 09:30:48;;;;;;;7.35;6.75;;;36.50;30.30;;;;;;939175;149;26282;-78
2022/03/27 09:33:36;;;;;;;8.15;7.33;;;36.60;30.30;;;;;;943348;151;26364;-78
2022/03/27 09:36:05;;;;;;;7.65;6.87;;;36.60;30.20;;;;;;944212;151;26373;-78
2022/03/27 09:38:32;;;;;;;8.00;7.30;;;36.60;30.10;;;;;;944073;151;26240;-78
2022/03/27 09:40:58;;;;;;;7.87;6.78;;;36.60;29.90;;;;;;943935;151;26295;-79
2022/03/27 09:43:25;;;;;;;7.72;7.03;;;36.50;29.80;;;;;;943732;151;26361;-80
2022/03/27 09:45:58;;;;;;;7.30;6.60;;;36.30;29.80;;;;;;944278;151;26268;-81
2022/03/27 09:48:24;;;;;;;7.53;6.83;;;36.20;29.80;;;;;;943987;151;26228;-78
2022/03/27 09:50:50;;;;;;;7.30;6.60;;;36.10;29.70;;;;;;943987;151;27346;-78
2022/03/27 09:53:29;;;;;;;7.42;6.78;;;36.00;29.70;;;;;;942693;150;26130;-80
2022/03/27 09:55:58;;;;;;;8.33;7.37;;;35.80;29.80;;;;;;944246;151;26288;-78
2022/03/27 09:58:39;;;;;;;7.67;6.97;;;35.50;29.80;;;;;;943493;151;27333;-78
2022/03/27 10:01:15;;;;;;;7.62;6.92;;;35.30;29.90;;;;;;936414;152;27341;-78
2022/03/27 10:04:02;;;;;;;7.20;6.50;;;35.00;29.90;;;;;;934244;152;27405;-80
2022/03/27 10:06:36;;;;;;;7.28;6.62;;;34.80;30.00;;;;;;936139;151;27470;-78
2022/03/27 10:09:01;;;;;;;7.55;6.85;;;34.50;29.90;;;;;;936273;152;27264;-78
2022/03/27 10:11:28;;;;;;;8.28;7.47;;;34.30;29.90;;;;;;936428;150;27259;-78
2022/03/27 10:13:54;;;;;;;7.62;6.87;;;33.90;29.90;;;;;;935820;151;27283;-79
2022/03/27 10:16:29;;;;;;;8.40;7.70;;;33.60;29.90;;;;;;936596;151;27462;-80
2022/03/27 10:18:56;;;;;;;9.08;8.28;;;33.30;30.00;;;;;;936963;150;27734;-78
2022/03/27 10:21:22;;;;;;;7.50;6.75;;;32.90;30.00;;;;;;935925;150;27333;-78
2022/03/27 10:23:49;;;;;;;8.38;7.58;;;32.60;30.10;;;;;;934523;152;27384;-80
2022/03/27 10:26:15;;;;;;;9.20;8.23;;;32.20;30.20;;;;;;935869;151;27902;-78
2022/03/27 10:28:42;;;;;;;7.97;7.28;;;31.90;30.30;;;;;;936245;152;27302;-78
2022/03/27 10:31:09;;;;;;;9.65;8.75;;;31.50;30.40;;;;;;934580;149;27683;-79
2022/03/27 10:33:35;;;;;;;8.73;7.90;;;31.30;30.60;;;;;;934367;152;27726;-78
2022/03/27 10:36:05;;;;;;;8.38;7.53;;;30.90;30.70;;;;;;934485;151;27798;-79
2022/03/27 10:38:53;;;;;;;9.58;7.50;;;30.50;31.00;;;;;;934243;152;27351;-77
2022/03/27 10:41:46;;;;;;;8.50;7.72;;;30.20;31.10;;;;;;934607;152;27435;-76
2022/03/27 10:44:22;;;;;;;7.97;7.28;;;29.90;31.40;;;;;;936509;151;27327;-76
2022/03/27 10:47:06;;;;;;;9.45;7.58;;;29.50;31.60;;;;;;935255;152;27339;-76
2022/03/27 10:49:33;;;;;;;11.88;8.00;;;29.20;31.80;;;;;;934392;149;27411;-79
2022/03/27 10:52:06;;;;;;;9.13;8.23;;;28.90;32.00;;;;;;936415;152;27329;-78
2022/03/27 10:54:33;;;;;;;8.70;7.80;;;28.60;32.20;;;;;;936906;152;27371;-77
2022/03/27 10:56:59;;;;;;;8.40;7.65;;;28.30;32.50;;;;;;934898;152;27340;-77
2022/03/27 10:59:25;;;;;;;8.28;7.58;;;28.10;32.60;;;;;;936456;151;27266;-78
2022/03/27 11:01:52;;;;;;;8.03;7.33;;;27.80;32.80;;;;;;944162;151;27365;-80
2022/03/27 11:04:18;;;;;;;8.38;7.58;;;27.50;33.00;;;;;;943725;149;27423;-77
2022/03/27 11:06:48;;;;;;;8.65;7.30;;;27.30;33.30;;;;;;942911;151;27245;-77
2022/03/27 11:09:33;;;;;;;8.10;7.30;;;27.10;33.60;;;;;;942555;151;27338;-77
2022/03/27 11:11:59;;;;;;;7.47;6.78;;;26.90;33.90;;;;;;944112;149;27331;-77
2022/03/27 11:14:45;;;;;;;8.08;7.33;;;26.80;34.20;;;;;;943855;151;27310;-79
2022/03/27 11:17:11;;;;;;;7.90;7.20;;;26.60;34.30;;;;;;942536;151;27436;-80
2022/03/27 11:19:41;;;;;;;8.13;7.33;;;26.50;34.60;;;;;;944130;151;27395;-77
2022/03/27 11:22:07;;;;;;;7.60;7.00;;;26.40;34.60;;;;;;943335;151;27313;-77
2022/03/27 11:24:33;;;;;;;7.97;7.20;;;26.30;34.70;;;;;;943666;149;27237;-77
2022/03/27 11:27:00;;;;;;;8.38;7.05;;;26.20;35.00;;;;;;943597;151;27317;-78
2022/03/27 11:29:27;;;;;;;7.90;7.17;;;26.10;34.50;;;;;;943969;151;27365;-79
2022/03/27 11:32:09;;;;;;;9.90;8.10;;;26.00;34.60;;;;;;944120;149;27365;-77
2022/03/27 11:34:38;;;;;;;8.00;7.20;;;25.90;34.60;;;;;;943717;151;27371;-77
2022/03/27 11:37:14;;;;;;;8.25;7.40;;;25.70;34.70;;;;;;944364;150;27399;-78
2022/03/27 11:39:40;;;;;;;9.15;8.18;;;25.50;34.90;;;;;;943666;149;27364;-77
2022/03/27 11:42:32;;;;;;;7.95;7.15;;;25.30;35.10;;;;;;943830;151;27410;-79
2022/03/27 11:45:17;;;;;;;6.90;6.20;;;25.10;35.10;;;;;;943938;151;27651;-78
2022/03/27 11:47:43;;;;;;;7.70;7.00;;;24.90;35.30;;;;;;943566;151;27401;-79
2022/03/27 11:50:10;;;;;;;9.33;7.72;;;24.60;35.40;;;;;;943072;151;27406;-79
2022/03/27 11:52:36;;;;;;;7.45;6.75;;;24.50;35.90;;;;;;942058;151;27450;-77
2022/03/27 11:55:06;;;;;;;6.87;5.65;;;24.30;36.00;;;;;;943599;151;27292;-77
2022/03/27 11:57:52;;;;;;;7.00;6.12;;;24.20;36.30;;;;;;944084;151;27395;-77
2022/03/27 12:00:17;;;;;;;6.62;6.03;;;24.10;36.50;;;;;;942893;151;27357;-78
2022/03/27 12:02:43;;;;;;;6.22;5.62;;;24.00;36.70;;;;;;941859;150;27454;-77
2022/03/27 12:05:10;;;;;;;7.47;6.75;;;24.00;37.00;;;;;;943202;149;28390;-77
2022/03/27 12:07:49;;;;;;;7.20;6.55;;;24.00;37.10;;;;;;943517;151;27331;-77
2022/03/27 12:10:15;;;;;;;7.47;6.78;;;24.00;37.20;;;;;;942306;151;27824;-77
2022/03/27 12:12:57;;;;;;;8.03;6.67;;;24.10;37.30;;;;;;943708;150;27353;-77
2022/03/27 12:15:24;;;;;;;9.58;7.30;;;24.10;37.40;;;;;;943457;151;27393;-77
2022/03/27 12:17:50;;;;;;;7.42;6.72;;;24.10;37.30;;;;;;941688;151;27355;-77
2022/03/27 12:20:17;;;;;;;7.33;6.03;;;24.10;38.00;;;;;;943801;151;27341;-77
2022/03/27 12:22:43;;;;;;;7.72;6.83;;;24.10;37.50;;;;;;943774;151;27338;-77
2022/03/27 12:25:16;;;;;;;8.63;6.67;;;24.00;37.60;;;;;;944295;149;27323;-77
2022/03/27 12:30:37;;;;;;;7.28;6.53;;;24.00;37.70;;;;;;944222;151;27541;-79
2022/03/27 12:33:03;;;;;;;7.12;6.37;;;23.90;37.90;;;;;;943552;151;27461;-77
2022/03/27 12:35:30;;;;;;;7.40;6.40;;;23.90;37.90;;;;;;944274;151;27317;-77
2022/03/27 12:37:56;;;;;;;7.28;6.55;;;23.80;38.00;;;;;;944081;151;27289;-77
2022/03/27 12:40:24;;;;;;;7.80;7.05;;;23.80;38.10;;;;;;943888;151;27408;-77
2022/03/27 12:42:50;;;;;;;7.75;6.90;;;23.70;38.20;;;;;;944089;151;27353;-79
2022/03/27 12:45:19;;;;;;;6.67;6.08;;;23.70;38.40;;;;;;943800;151;27327;-77
2022/03/27 12:47:48;;;;;;;6.95;6.25;;;23.70;38.40;;;;;;943383;151;27302;-77
2022/03/27 12:50:27;;;;;;;7.15;6.45;;;23.60;38.40;;;;;;943146;151;27349;-77
2022/03/27 12:52:53;;;;;;;7.10;5.97;;;23.60;38.60;;;;;;944241;151;27409;-79
2022/03/27 12:55:20;;;;;;;7.72;6.35;;;23.60;38.60;;;;;;943440;151;27383;-77
2022/03/27 12:57:55;;;;;;;7.37;6.65;;;23.60;38.70;;;;;;944057;151;27268;-78
2022/03/27 13:00:24;;;;;;;7.22;6.53;;;23.60;38.70;;;;;;942886;151;27309;-77
2022/03/27 13:02:51;;;;;;;6.80;6.20;;;23.60;38.80;;;;;;937562;150;27441;-77
2022/03/27 13:05:17;;;;;;;6.45;5.80;;;23.60;38.80;;;;;;933175;152;27787;-77